Time;durP1;ratioP1;P1;durP2;ratioP2;P2;SDS_P1;SDS_P2;PMS_P1;PMS_P2;Temp;Humidity;BMP_temperature;BMP_pressure;BME280_temperature;BME280_humidity;BME280_pressure;Samples;Min_cycle;Max_cycle;Signal;HPM_P1;HPM_P2
2022/08/26 00:00:49;;;;;;;0.40;0.40;;;;;;;23.33;42.17;101516.00;5116198;28;20026;-75
2022/08/26 00:03:15;;;;;;;0.50;0.50;;;;;;;23.34;42.03;101505.94;5117151;28;20039;-75
2022/08/26 00:05:41;;;;;;;0.40;0.40;;;;;;;23.32;41.84;101508.91;5116482;28;20028;-74
2022/08/26 00:08:06;;;;;;;0.50;0.50;;;;;;;23.30;41.97;101507.47;5117251;28;20442;-74
2022/08/26 00:10:32;;;;;;;0.35;0.35;;;;;;;23.34;42.24;101506.75;5116658;28;20357;-74
2022/08/26 00:13:00;;;;;;;0.40;0.40;;;;;;;23.33;42.06;101496.91;5116879;28;20035;-74
2022/08/26 00:15:26;;;;;;;0.43;0.43;;;;;;;23.33;41.99;101505.06;5116445;28;20023;-74
2022/08/26 00:17:51;;;;;;;0.50;0.50;;;;;;;23.32;42.11;101500.72;5116251;28;20035;-74
2022/08/26 00:20:19;;;;;;;0.43;0.43;;;;;;;23.32;42.18;101498.00;5116504;28;20020;-74
2022/08/26 00:22:45;;;;;;;0.70;0.70;;;;;;;23.33;42.23;101498.81;5117046;28;20027;-74
2022/08/26 00:25:11;;;;;;;0.40;0.40;;;;;;;23.32;42.25;101489.81;5117047;28;20558;-74
2022/08/26 00:27:37;;;;;;;0.50;0.50;;;;;;;23.30;42.20;101483.78;5116504;28;20487;-74
2022/08/26 00:30:05;;;;;;;0.40;0.40;;;;;;;23.31;42.46;101495.50;5116438;28;20028;-74
2022/08/26 00:32:30;;;;;;;0.60;0.52;;;;;;;23.30;42.54;101493.84;5116254;28;20036;-74
2022/08/26 00:34:57;;;;;;;0.50;0.50;;;;;;;23.31;42.28;101500.94;5115869;28;20077;-74
2022/08/26 00:37:23;;;;;;;1.00;0.68;;;;;;;23.27;42.57;101492.44;5116604;28;20072;-74
2022/08/26 00:39:48;;;;;;;0.60;0.40;;;;;;;23.31;42.38;101500.94;5116318;28;20415;-74
2022/08/26 00:42:13;;;;;;;0.60;0.60;;;;;;;23.31;42.69;101499.03;5116325;28;20130;-74
2022/08/26 00:44:39;;;;;;;0.52;0.50;;;;;;;23.31;42.64;101501.78;5116425;28;20026;-73
2022/08/26 00:47:06;;;;;;;0.43;0.43;;;;;;;23.31;42.47;101503.69;5116034;28;20470;-75
2022/08/26 00:49:40;;;;;;;0.50;0.50;;;;;;;23.29;42.63;101498.47;5116120;28;20026;-75
2022/08/26 00:52:08;;;;;;;0.50;0.50;;;;;;;23.31;42.54;101506.41;5116286;28;20031;-75
2022/08/26 00:54:45;;;;;;;0.55;0.55;;;;;;;23.28;42.76;101504.16;5087988;28;20028;-74
2022/08/26 00:57:12;;;;;;;0.68;0.68;;;;;;;23.31;42.54;101504.50;5062798;28;20032;-74
2022/08/26 00:59:38;;;;;;;0.60;0.60;;;;;;;23.29;42.58;101497.66;5095609;28;20028;-74
2022/08/26 01:02:03;;;;;;;0.60;0.60;;;;;;;23.30;42.78;101502.00;5095196;28;20027;-74
2022/08/26 01:04:30;;;;;;;0.57;0.57;;;;;;;23.29;42.82;101500.38;5077829;28;20051;-74
2022/08/26 01:06:56;;;;;;;0.75;0.63;;;;;;;23.29;42.91;101501.19;5061691;28;20036;-74
2022/08/26 01:09:22;;;;;;;0.65;0.65;;;;;;;23.28;42.64;101501.44;5077603;28;20048;-74
2022/08/26 01:11:48;;;;;;;0.60;0.60;;;;;;;23.29;42.74;101508.56;5077388;28;20048;-73
2022/08/26 01:14:13;;;;;;;0.70;0.70;;;;;;;23.29;42.68;101514.84;5077462;28;20024;-74
2022/08/26 01:16:39;;;;;;;0.60;0.60;;;;;;;23.28;42.56;101510.44;5077341;28;20024;-75
2022/08/26 01:19:39;;;;;;;0.52;0.52;;;;;;;23.33;42.77;101515.16;5095010;28;20374;-75
2022/08/26 01:22:13;;;;;;;0.75;0.75;;;;;;;23.28;42.58;101520.53;5059945;28;20121;-75
2022/08/26 01:24:38;;;;;;;;;;;;;;;23.46;42.12;101524.94;5062366;28;20077;-73
2022/08/26 01:27:06;;;;;;;0.60;0.60;;;;;;;23.35;42.16;101518.47;5095355;28;19927;-75
2022/08/26 01:29:31;;;;;;;0.60;0.60;;;;;;;23.30;42.29;101513.78;5077159;28;20184;-74
2022/08/26 01:31:57;;;;;;;0.63;0.63;;;;;;;23.29;42.26;101525.75;5060755;28;20025;-74
2022/08/26 01:34:34;;;;;;;0.60;0.60;;;;;;;23.28;42.61;101520.53;5095130;28;20399;-73
2022/08/26 01:37:13;;;;;;;0.65;0.65;;;;;;;23.27;42.23;101522.44;5077915;28;20039;-75
2022/08/26 01:39:39;;;;;;;0.60;0.60;;;;;;;23.26;42.25;101520.78;5095319;28;20063;-74
2022/08/26 01:42:06;;;;;;;0.70;0.63;;;;;;;23.25;42.44;101521.88;5095483;28;20028;-75
2022/08/26 01:44:35;;;;;;;0.70;0.70;;;;;;;23.24;42.47;101528.38;5077635;28;20024;-75
2022/08/26 01:47:00;;;;;;;0.70;0.70;;;;;;;23.26;42.73;101526.22;5078238;28;20036;-75
2022/08/26 01:49:26;;;;;;;0.85;0.70;;;;;;;23.26;42.38;101523.50;5060465;28;20426;-74
2022/08/26 01:51:52;;;;;;;0.60;0.60;;;;;;;23.25;42.57;101528.13;5060923;28;20028;-75
2022/08/26 01:54:18;;;;;;;0.68;0.60;;;;;;;23.26;42.51;101526.22;5067975;28;20039;-74
2022/08/26 01:56:44;;;;;;;0.73;0.73;;;;;;;23.25;42.48;101519.13;5115608;28;20102;-73
2022/08/26 01:59:10;;;;;;;0.80;0.80;;;;;;;23.25;42.75;101524.59;5080274;28;20067;-74
2022/08/26 02:01:36;;;;;;;0.70;0.70;;;;;;;23.25;42.51;101525.41;5115435;28;20054;-74
2022/08/26 02:04:08;;;;;;;0.70;0.70;;;;;;;23.24;42.33;101523.75;5115352;28;20028;-74
2022/08/26 02:06:35;;;;;;;0.90;0.90;;;;;;;23.23;42.80;101527.56;5115719;28;20115;-74
2022/08/26 02:09:01;;;;;;;0.98;0.90;;;;;;;23.24;42.80;101521.00;5097751;28;20035;-74
2022/08/26 02:11:26;;;;;;;1.00;0.90;;;;;;;23.24;42.74;101525.66;5115051;28;20028;-74
2022/08/26 02:13:59;;;;;;;0.73;0.73;;;;;;;23.22;42.54;101530.53;5115375;28;20026;-74
2022/08/26 02:16:25;;;;;;;0.82;0.82;;;;;;;23.23;42.73;101521.25;5096940;28;20028;-75
2022/08/26 02:18:51;;;;;;;1.00;0.90;;;;;;;23.23;42.80;101522.09;5114995;28;20446;-75
2022/08/26 02:21:16;;;;;;;0.90;0.90;;;;;;;23.23;42.59;101518.53;5097039;28;20024;-75
2022/08/26 02:23:42;;;;;;;0.73;0.73;;;;;;;23.24;42.72;101514.75;5115553;28;20461;-75
2022/08/26 02:26:12;;;;;;;0.90;0.90;;;;;;;23.24;42.78;101514.75;5115431;28;20023;-74
2022/08/26 02:28:44;;;;;;;0.95;0.90;;;;;;;23.25;42.57;101527.31;5099190;28;20085;-75
2022/08/26 02:31:09;;;;;;;1.15;1.05;;;;;;;23.28;42.50;101532.25;5084632;28;20023;-74
2022/08/26 02:33:35;;;;;;;0.98;0.95;;;;;;;23.29;42.40;101524.94;5118601;28;20061;-74
2022/08/26 02:36:00;;;;;;;0.95;0.90;;;;;;;23.32;42.49;101525.25;5119104;28;20028;-74
2022/08/26 02:38:26;;;;;;;1.25;1.15;;;;;;;23.34;42.58;101525.03;5118697;28;20477;-74
2022/08/26 02:40:52;;;;;;;0.90;0.90;;;;;;;23.34;42.69;101523.09;5119565;28;20019;-74
2022/08/26 02:43:17;;;;;;;0.80;0.80;;;;;;;23.37;42.43;101517.16;5119054;28;20053;-74
2022/08/26 02:45:43;;;;;;;1.00;0.90;;;;;;;23.38;42.52;101513.34;5118931;28;20481;-74
2022/08/26 02:48:16;;;;;;;1.00;1.00;;;;;;;23.37;42.30;101508.97;5118911;28;20020;-74
2022/08/26 02:50:42;;;;;;;1.30;1.10;;;;;;;23.37;42.29;101506.25;5118884;28;20046;-74
2022/08/26 02:53:08;;;;;;;0.85;0.85;;;;;;;23.39;42.35;101506.84;5117693;28;20028;-74
2022/08/26 02:55:33;;;;;;;1.00;0.80;;;;;;;23.38;42.49;101507.06;5100268;28;20028;-74
2022/08/26 02:58:00;;;;;;;1.88;1.08;;;;;;;23.39;42.16;101497.84;5097395;28;20024;-74
2022/08/26 03:00:25;;;;;;;2.45;1.02;;;;;;;23.40;42.41;101504.91;5097217;28;20055;-74
2022/08/26 03:02:53;;;;;;;2.45;1.10;;;;;;;23.39;42.17;101501.38;5097657;28;20105;-73
2022/08/26 03:05:20;;;;;;;1.65;1.13;;;;;;;23.44;42.08;101490.56;5096986;28;20028;-74
2022/08/26 03:07:46;;;;;;;3.40;0.95;;;;;;;23.46;41.88;101495.75;5097420;28;20097;-74
2022/08/26 03:10:12;;;;;;;2.30;1.00;;;;;;;23.49;41.91;101494.44;5096619;28;20462;-73
2022/08/26 03:12:37;;;;;;;1.15;1.05;;;;;;;23.47;41.74;101488.41;5096724;28;20098;-74
2022/08/26 03:15:05;;;;;;;1.35;1.10;;;;;;;23.50;41.68;101493.38;5096572;28;20020;-74
2022/08/26 03:17:30;;;;;;;3.65;1.00;;;;;;;23.51;41.44;101493.13;5096659;28;20026;-74
2022/08/26 03:19:55;;;;;;;1.10;1.00;;;;;;;23.52;41.16;101491.22;5096834;28;20020;-74
2022/08/26 03:22:21;;;;;;;2.20;0.90;;;;;;;23.53;40.73;101490.16;5096128;28;20450;-74
2022/08/26 03:24:46;;;;;;;0.82;0.82;;;;;;;23.53;40.67;101482.78;5095987;28;20024;-73
2022/08/26 03:27:12;;;;;;;1.08;0.95;;;;;;;23.55;40.53;101488.00;5096914;28;20032;-73
2022/08/26 03:32:22;;;;;;;2.45;0.95;;;;;;;23.55;40.01;101488.00;5095803;28;20119;-72
2022/08/26 03:34:47;;;;;;;1.00;0.90;;;;;;;23.56;39.90;101493.22;5095087;28;20040;-72
2022/08/26 03:37:13;;;;;;;0.80;0.80;;;;;;;23.55;39.89;101491.53;5095973;28;20122;-72
2022/08/26 03:39:39;;;;;;;0.60;0.60;;;;;;;23.58;39.69;101490.22;5095813;28;20023;-72
2022/08/26 03:42:05;;;;;;;0.80;0.80;;;;;;;23.58;39.36;101492.97;5096294;28;20020;-72
2022/08/26 03:44:30;;;;;;;2.03;0.80;;;;;;;23.61;39.71;101489.72;5099385;28;20081;-72
2022/08/26 03:46:56;;;;;;;0.65;0.65;;;;;;;23.60;39.25;101493.53;5101450;28;20077;-72
2022/08/26 03:49:21;;;;;;;0.60;0.60;;;;;;;23.62;38.88;101492.19;5106454;28;20020;-72
2022/08/26 03:51:47;;;;;;;0.60;0.60;;;;;;;23.65;39.25;101484.63;5113306;28;20020;-73
2022/08/26 03:54:12;;;;;;;0.57;0.57;;;;;;;23.62;39.27;101491.38;5119126;28;20023;-73
2022/08/26 03:56:38;;;;;;;0.70;0.70;;;;;;;23.66;38.91;101487.06;5100623;28;20027;-73
2022/08/26 03:59:04;;;;;;;2.05;0.75;;;;;;;23.65;39.02;101488.16;5135260;28;20023;-72
2022/08/26 04:01:29;;;;;;;0.85;0.85;;;;;;;23.64;39.05;101478.31;5130633;28;20426;-72
2022/08/26 04:03:58;;;;;;;0.50;0.50;;;;;;;23.67;39.44;101483.28;5116686;28;20093;-72
2022/08/26 04:06:38;;;;;;;0.80;0.70;;;;;;;23.69;39.30;101475.66;5082059;28;20053;-72
2022/08/26 04:09:05;;;;;;;0.52;0.52;;;;;;;23.67;39.61;101480.53;5117303;28;20094;-72
2022/08/26 04:11:31;;;;;;;0.70;0.70;;;;;;;23.69;39.82;101472.94;5129254;28;20038;-72
2022/08/26 04:14:01;;;;;;;0.88;0.80;;;;;;;23.71;40.04;101475.41;5132883;28;20023;-73
2022/08/26 04:16:27;;;;;;;0.85;0.80;;;;;;;23.70;39.82;101466.41;5128030;28;20019;-71
2022/08/26 04:18:53;;;;;;;0.80;0.80;;;;;;;23.72;40.23;101474.34;5131800;28;20020;-73
2022/08/26 04:21:19;;;;;;;1.45;0.90;;;;;;;23.67;40.10;101466.91;5112006;28;20023;-72
2022/08/26 04:23:44;;;;;;;0.75;0.75;;;;;;;23.74;40.04;101477.66;5122274;28;20039;-72
2022/08/26 04:26:10;;;;;;;0.90;0.80;;;;;;;23.75;40.54;101477.41;5115918;28;20421;-72
2022/08/26 04:28:35;;;;;;;0.93;0.80;;;;;;;23.75;40.64;101474.69;5116251;28;20023;-72
2022/08/26 04:31:01;;;;;;;0.80;0.77;;;;;;;23.75;40.63;101463.75;5115504;28;20024;-73
2022/08/26 04:33:27;;;;;;;0.95;0.82;;;;;;;23.77;40.72;101471.69;5115334;28;20190;-72
2022/08/26 04:36:02;;;;;;;1.23;1.13;;;;;;;23.76;40.58;101475.50;5115833;28;20020;-72
2022/08/26 04:38:28;;;;;;;1.98;1.10;;;;;;;23.77;41.12;101477.16;5115692;28;20024;-72
2022/08/26 04:40:53;;;;;;;1.00;0.90;;;;;;;23.79;40.55;101481.28;5115905;28;20050;-72
2022/08/26 04:43:19;;;;;;;1.05;0.95;;;;;;;23.83;41.01;101480.81;5115438;28;20065;-72
2022/08/26 04:45:44;;;;;;;1.25;1.08;;;;;;;23.80;41.07;101477.50;5116538;28;20023;-72
2022/08/26 04:48:10;;;;;;;1.17;1.08;;;;;;;23.84;41.19;101482.47;5116847;28;20118;-71
2022/08/26 04:50:36;;;;;;;1.20;1.10;;;;;;;23.86;40.86;101480.31;5116058;28;20465;-72
2022/08/26 04:53:03;;;;;;;1.10;1.00;;;;;;;23.86;41.10;101474.88;5116193;28;20019;-72
2022/08/26 04:55:28;;;;;;;1.05;0.90;;;;;;;23.87;41.24;101473.78;5116806;28;20019;-72
2022/08/26 04:57:54;;;;;;;1.20;1.10;;;;;;;23.88;40.98;101483.63;5116199;28;20447;-72
2022/08/26 05:00:20;;;;;;;1.23;0.90;;;;;;;23.85;41.21;101474.00;5115836;28;20027;-72
2022/08/26 05:02:46;;;;;;;0.95;0.93;;;;;;;23.85;41.51;101478.66;5115606;28;20032;-72
2022/08/26 05:05:12;;;;;;;1.10;1.00;;;;;;;23.87;41.48;101479.22;5116609;28;20035;-72
2022/08/26 05:07:38;;;;;;;1.00;1.00;;;;;;;23.83;41.54;101476.19;5116565;28;20023;-71
2022/08/26 05:10:05;;;;;;;0.88;0.88;;;;;;;23.87;41.77;101469.16;5116827;28;20425;-71
2022/08/26 05:12:30;;;;;;;0.90;0.90;;;;;;;23.83;42.02;101469.91;5115500;28;20469;-72
2022/08/26 05:14:56;;;;;;;1.17;1.08;;;;;;;23.89;41.87;101468.91;5116261;28;20051;-73
2022/08/26 05:17:21;;;;;;;1.30;0.90;;;;;;;23.87;42.04;101463.69;5116267;28;20027;-73
2022/08/26 05:19:47;;;;;;;1.35;1.25;;;;;;;23.89;42.07;101461.53;5115843;28;20055;-72
2022/08/26 05:22:13;;;;;;;1.52;1.00;;;;;;;23.91;42.14;101461.28;5115295;28;20045;-73
2022/08/26 05:24:39;;;;;;;10.32;4.20;;;;;;;23.86;42.37;101463.94;5062192;28;20032;-72
2022/08/26 05:27:06;;;;;;;7.43;3.17;;;;;;;23.91;42.01;101458.56;5114705;28;20398;-71
2022/08/26 05:29:31;;;;;;;5.85;2.47;;;;;;;23.84;42.24;101457.91;5114144;28;20024;-72
2022/08/26 05:31:57;;;;;;;4.75;2.10;;;;;;;23.94;42.03;101460.75;5113601;28;20024;-72
2022/08/26 05:34:22;;;;;;;4.57;2.25;;;;;;;23.91;42.43;101455.81;5113532;28;20511;-70
2022/08/26 05:36:48;;;;;;;3.15;1.85;;;;;;;23.96;42.45;101461.38;5114099;28;20020;-69
2022/08/26 05:39:14;;;;;;;3.28;2.00;;;;;;;23.92;42.23;101457.47;5095584;28;20127;-70
2022/08/26 05:41:40;;;;;;;1.75;1.27;;;;;;;23.94;42.42;101452.56;5095500;28;20020;-69
2022/08/26 05:44:08;;;;;;;2.00;1.40;;;;;;;23.94;42.54;101455.31;5114201;28;20019;-69
2022/08/26 05:46:34;;;;;;;2.63;1.40;;;;;;;23.99;42.37;101458.09;5113901;28;20046;-70
2022/08/26 05:49:00;;;;;;;3.72;1.27;;;;;;;23.89;42.73;101460.72;5113499;28;20149;-70
2022/08/26 05:51:25;;;;;;;1.70;1.27;;;;;;;23.92;42.74;101457.47;5113271;28;20051;-70
2022/08/26 05:53:51;;;;;;;1.63;1.20;;;;;;;23.93;42.42;101454.50;5113706;28;20031;-68
2022/08/26 05:56:18;;;;;;;1.65;1.25;;;;;;;23.91;43.12;101455.81;5093182;28;20032;-69
2022/08/26 05:58:44;;;;;;;2.65;1.27;;;;;;;23.93;43.19;101443.56;5093100;28;20063;-68
2022/08/26 06:01:15;;;;;;;5.15;1.35;;;;;;;23.99;43.09;101449.91;5093565;28;20470;-69
2022/08/26 06:03:43;;;;;;;3.28;1.10;;;;;;;24.08;43.04;101442.97;5095851;28;20062;-69
2022/08/26 06:06:16;;;;;;;2.33;1.08;;;;;;;24.10;43.02;101448.16;5097107;28;20111;-69
2022/08/26 06:08:42;;;;;;;2.08;1.10;;;;;;;24.11;43.07;101447.94;5096996;28;20162;-69
2022/08/26 06:11:09;;;;;;;2.30;1.10;;;;;;;24.12;43.05;101443.28;5097210;28;20024;-68
2022/08/26 06:13:35;;;;;;;3.25;1.20;;;;;;;24.16;42.69;101458.91;5096519;28;20454;-68
2022/08/26 06:16:05;;;;;;;2.22;1.23;;;;;;;24.09;42.74;101460.97;5096337;28;20105;-68
2022/08/26 06:18:33;;;;;;;2.45;1.20;;;;;;;24.06;42.58;101456.03;5096409;28;20024;-69
2022/08/26 06:20:59;;;;;;;1.20;1.00;;;;;;;24.08;42.89;101451.16;5096250;28;20028;-68
2022/08/26 06:26:11;;;;;;;1.10;1.00;;;;;;;23.98;42.77;101448.28;5096435;28;20062;-69
2022/08/26 06:28:36;;;;;;;1.00;0.90;;;;;;;24.11;42.76;101447.06;5096991;28;20051;-69
2022/08/26 06:31:02;;;;;;;1.15;0.93;;;;;;;24.10;42.45;101449.00;5096500;28;20020;-68
2022/08/26 06:33:28;;;;;;;2.60;1.13;;;;;;;24.12;42.29;101441.38;5096034;28;20381;-69
2022/08/26 06:35:53;;;;;;;1.77;1.10;;;;;;;24.11;42.31;101439.72;5096004;28;20039;-69
2022/08/26 06:38:19;;;;;;;3.78;1.70;;;;;;;24.08;42.31;101437.50;5095825;28;20106;-69
2022/08/26 06:40:49;;;;;;;3.03;1.50;;;;;;;23.91;42.96;101443.00;5096275;28;20181;-68
2022/08/26 06:43:16;;;;;;;1.70;1.15;;;;;;;23.77;43.26;101438.94;5096092;28;20017;-68
2022/08/26 06:45:44;;;;;;;1.35;1.00;;;;;;;23.66;43.34;101432.50;5095849;28;20120;-69
2022/08/26 06:48:09;;;;;;;2.47;1.05;;;;;;;23.77;43.35;101434.31;5078659;28;20016;-70
2022/08/26 06:50:35;;;;;;;1.15;1.05;;;;;;;23.84;43.23;101434.16;5096328;28;20024;-70
2022/08/26 06:53:01;;;;;;;2.15;0.90;;;;;;;23.79;43.33;101436.78;5095737;28;20028;-69
2022/08/26 06:55:27;;;;;;;2.47;1.23;;;;;;;23.76;43.24;101438.09;5108805;28;20042;-69
2022/08/26 06:57:53;;;;;;;3.08;1.08;;;;;;;23.79;43.09;101431.31;5116401;28;20020;-70
2022/08/26 07:00:19;;;;;;;1.48;0.85;;;;;;;23.85;42.92;101435.81;5116831;28;20032;-74
2022/08/26 07:02:45;;;;;;;1.67;1.20;;;;;;;23.88;42.98;101434.50;5116708;28;20028;-74
2022/08/26 07:05:10;;;;;;;1.88;1.45;;;;;;;24.10;42.26;101432.59;5116549;28;20092;-74
2022/08/26 07:07:36;;;;;;;1.95;1.42;;;;;;;24.17;42.35;101433.25;5116791;28;20420;-74
2022/08/26 07:10:03;;;;;;;2.83;1.80;;;;;;;24.17;42.29;101427.78;5116547;28;20037;-75
2022/08/26 07:12:28;;;;;;;5.13;1.80;;;;;;;24.27;41.89;101437.19;5116852;28;20020;-76
2022/08/26 07:14:54;;;;;;;2.45;1.63;;;;;;;24.21;42.22;101433.56;5117293;28;20084;-76
2022/08/26 07:17:20;;;;;;;7.85;3.50;;;;;;;24.17;42.06;101433.25;5099152;28;20055;-76
2022/08/26 07:19:46;;;;;;;8.77;3.50;;;;;;;24.15;42.23;101432.69;5117089;28;20027;-75
2022/08/26 07:22:11;;;;;;;5.60;2.45;;;;;;;24.18;42.50;101432.16;5116989;28;20024;-75
2022/08/26 07:24:39;;;;;;;6.30;2.40;;;;;;;24.25;42.42;101422.94;5121297;28;20030;-75
2022/08/26 07:27:08;;;;;;;4.75;2.40;;;;;;;24.25;42.27;101429.25;5117846;28;20039;-75
2022/08/26 07:29:34;;;;;;;4.18;2.47;;;;;;;24.29;42.28;101430.38;5117472;28;20035;-75
2022/08/26 07:31:59;;;;;;;14.02;5.15;;;;;;;24.18;42.40;101423.97;5117012;28;20031;-75
2022/08/26 07:34:25;;;;;;;11.50;4.95;;;;;;;24.25;42.25;101422.94;5094383;28;20043;-74
2022/08/26 07:36:50;;;;;;;9.00;3.45;;;;;;;24.36;42.05;101420.09;5095511;28;20028;-74
2022/08/26 07:39:17;;;;;;;6.28;2.70;;;;;;;24.31;42.19;101424.66;5095989;28;20027;-74
2022/08/26 07:41:45;;;;;;;5.00;2.28;;;;;;;24.32;41.91;101434.53;5097241;28;20458;-75
2022/08/26 07:44:14;;;;;;;9.68;2.13;;;;;;;24.34;42.18;101432.38;5094248;28;20020;-74
2022/08/26 07:46:40;;;;;;;3.40;1.73;;;;;;;24.33;41.77;101436.97;5095558;28;20020;-74
2022/08/26 07:49:05;;;;;;;2.67;1.50;;;;;;;24.33;42.26;101436.97;5097037;28;20020;-74
2022/08/26 07:51:31;;;;;;;3.55;1.40;;;;;;;24.28;42.33;101438.84;5096588;28;20086;-74
2022/08/26 07:54:03;;;;;;;2.45;1.13;;;;;;;24.36;42.09;101441.13;5102477;28;20025;-74
2022/08/26 07:56:29;;;;;;;2.10;1.13;;;;;;;24.33;42.34;101441.63;5033274;28;20467;-75
2022/08/26 07:58:54;;;;;;;1.80;1.20;;;;;;;24.30;42.25;101437.53;5095530;28;20020;-74
2022/08/26 08:01:22;;;;;;;1.67;1.02;;;;;;;24.30;42.43;101431.19;5096363;28;20039;-76
2022/08/26 08:03:50;;;;;;;1.08;0.98;;;;;;;24.40;42.01;101435.97;5096908;28;20027;-74
2022/08/26 08:06:16;;;;;;;2.97;0.90;;;;;;;24.41;41.91;101443.94;5097370;28;20417;-74
2022/08/26 08:08:43;;;;;;;2.30;0.95;;;;;;;24.37;42.30;101434.59;5096227;28;20043;-75
2022/08/26 08:11:09;;;;;;;2.08;0.60;;;;;;;24.37;42.01;101431.88;5096433;28;20020;-76
2022/08/26 08:13:36;;;;;;;0.85;0.80;;;;;;;24.38;41.99;101433.50;5097493;28;20100;-75
2022/08/26 08:16:01;;;;;;;1.85;0.88;;;;;;;24.38;42.09;101433.50;5095769;28;20161;-75
2022/08/26 08:18:27;;;;;;;1.02;0.80;;;;;;;24.39;42.08;101440.63;5095370;28;20024;-75
2022/08/26 08:20:53;;;;;;;0.70;0.63;;;;;;;24.39;41.72;101440.63;5095823;28;20024;-74
2022/08/26 08:23:19;;;;;;;1.10;0.90;;;;;;;24.36;41.94;101441.94;5094545;28;20031;-74
2022/08/26 08:25:44;;;;;;;0.70;0.70;;;;;;;24.32;41.89;101437.25;5094397;28;20020;-76
2022/08/26 08:28:11;;;;;;;1.77;0.60;;;;;;;24.32;41.85;101434.53;5095720;28;20378;-76
2022/08/26 08:30:37;;;;;;;0.95;0.60;;;;;;;24.41;41.85;101433.00;5098147;28;20035;-75
2022/08/26 08:33:03;;;;;;;0.93;0.75;;;;;;;24.38;41.90;101428.03;5096486;28;20075;-75
2022/08/26 08:35:29;;;;;;;0.60;0.60;;;;;;;24.35;41.87;101420.34;5115475;28;20048;-75
2022/08/26 08:37:55;;;;;;;0.60;0.60;;;;;;;24.35;41.82;101426.66;5114951;28;20020;-75
2022/08/26 08:40:23;;;;;;;0.60;0.60;;;;;;;24.35;41.57;101421.19;5115954;28;20077;-76
2022/08/26 08:43:02;;;;;;;0.45;0.45;;;;;;;24.37;41.97;101418.22;5087826;28;20031;-77
2022/08/26 08:45:58;;;;;;;0.60;0.60;;;;;;;24.46;42.00;101416.66;5112160;28;20038;-76
2022/08/26 08:48:32;;;;;;;0.50;0.50;;;;;;;24.35;41.69;101423.06;5079902;28;20039;-71
2022/08/26 08:51:27;;;;;;;0.50;0.50;;;;;;;24.43;41.70;101411.69;5127692;28;20099;-71
2022/08/26 08:53:52;;;;;;;;;;;;;;;24.43;41.62;101411.69;5128263;28;20031;-71
2022/08/26 08:56:24;;;;;;;1.00;0.80;;;;;;;24.33;42.16;101414.31;5089819;28;19918;-71
2022/08/26 08:58:59;;;;;;;0.50;0.50;;;;;;;24.46;41.60;101413.94;5085658;28;20487;-71
2022/08/26 09:02:04;;;;;;;1.38;0.55;;;;;;;24.42;42.16;101411.94;5065771;28;20020;-71
2022/08/26 09:04:42;;;;;;;;;;;;;;;24.51;41.61;101405.78;5080305;28;20023;-71
2022/08/26 09:07:09;;;;;;;0.85;0.60;;;;;;;24.46;41.92;101408.47;5094591;28;19908;-72
2022/08/26 09:09:44;;;;;;;0.70;0.60;;;;;;;24.47;41.81;101412.81;5059414;28;20080;-71
2022/08/26 09:12:13;;;;;;;0.85;0.70;;;;;;;24.42;42.01;101415.50;5076434;28;20031;-74
2022/08/26 09:14:39;;;;;;;1.27;0.68;;;;;;;24.49;41.75;101418.88;5076148;28;20055;-75
2022/08/26 09:17:40;;;;;;;1.52;0.80;;;;;;;24.53;42.20;101419.19;5077150;28;20066;-73
2022/08/26 09:20:12;;;;;;;0.70;0.70;;;;;;;24.50;41.90;101412.31;4992941;28;20058;-74
2022/08/26 09:22:38;;;;;;;1.95;1.00;;;;;;;24.55;41.80;101411.59;4976740;28;20038;-75
2022/08/26 09:25:06;;;;;;;0.85;0.80;;;;;;;24.42;42.28;101411.94;4993576;28;20045;-76
2022/08/26 09:27:43;;;;;;;3.03;1.10;;;;;;;24.41;42.13;101410.31;4977520;28;20030;-75
2022/08/26 09:30:14;;;;;;;7.32;1.70;;;;;;;24.36;42.59;101402.88;4992770;28;20477;-75
2022/08/26 09:32:40;;;;;;;2.28;1.55;;;;;;;24.34;42.79;101399.59;4991972;28;20023;-75
2022/08/26 09:35:22;;;;;;;2.85;1.45;;;;;;;24.45;42.59;101404.06;4992149;28;20466;-74
2022/08/26 09:37:48;;;;;;;3.20;1.77;;;;;;;24.44;42.41;101404.31;4979767;28;20125;-75
2022/08/26 09:40:21;;;;;;;4.13;1.73;;;;;;;24.36;42.92;101409.16;4996594;28;20037;-72
2022/08/26 09:42:46;;;;;;;4.53;1.70;;;;;;;24.46;42.60;101397.53;4996158;28;20034;-72
2022/08/26 09:45:12;;;;;;;3.83;1.98;;;;;;;24.50;42.27;101401.41;4995721;28;20030;-72
2022/08/26 09:47:46;;;;;;;2.35;1.50;;;;;;;24.54;42.22;101399.84;4995693;28;20041;-72
2022/08/26 09:50:24;;;;;;;3.75;1.60;;;;;;;24.50;42.15;101398.66;4996076;28;20062;-72
2022/08/26 09:53:08;;;;;;;2.35;1.38;;;;;;;24.55;42.11;101406.94;4981338;28;20034;-71
2022/08/26 09:55:34;;;;;;;3.25;1.60;;;;;;;24.53;42.26;101403.63;5013115;28;20063;-71
2022/08/26 09:58:00;;;;;;;2.50;1.38;;;;;;;24.52;41.92;101415.63;5081304;28;20028;-71
2022/08/26 10:00:28;;;;;;;1.80;1.30;;;;;;;24.54;41.93;101405.31;5081387;28;20118;-71
2022/08/26 10:02:56;;;;;;;1.10;1.00;;;;;;;24.59;42.13;101406.44;5099181;28;20039;-74
2022/08/26 10:05:51;;;;;;;1.33;0.93;;;;;;;24.57;41.91;101408.63;5101332;28;20032;-73
2022/08/26 10:08:20;;;;;;;2.53;1.25;;;;;;;24.53;41.96;101402.81;5083702;28;20436;-73
2022/08/26 10:10:45;;;;;;;1.08;0.90;;;;;;;24.50;42.13;101404.13;5097730;28;20020;-71
2022/08/26 10:13:22;;;;;;;2.97;1.05;;;;;;;24.54;42.12;101399.84;5098290;28;20514;-72
2022/08/26 10:16:21;;;;;;;1.40;0.98;;;;;;;24.47;42.28;101388.25;5079066;28;20066;-71
2022/08/26 10:19:08;;;;;;;1.00;0.80;;;;;;;24.63;41.99;101388.44;5096382;28;20044;-71
2022/08/26 10:21:37;;;;;;;1.05;0.95;;;;;;;24.64;41.89;101379.97;5078433;28;20034;-72
2022/08/26 10:24:04;;;;;;;1.60;1.00;;;;;;;24.63;41.94;101382.97;5078530;28;20381;-72
2022/08/26 10:26:29;;;;;;;1.15;0.90;;;;;;;24.54;41.91;101378.00;5062474;28;20024;-73
2022/08/26 10:29:07;;;;;;;2.17;0.95;;;;;;;24.61;41.68;101379.69;5096899;28;20073;-74
2022/08/26 10:32:13;;;;;;;1.33;0.85;;;;;;;24.47;42.46;101382.78;5078654;28;20352;-74
2022/08/26 10:34:38;;;;;;;2.97;1.00;;;;;;;24.52;42.20;101374.63;5014230;28;20069;-71
2022/08/26 10:37:10;;;;;;;1.33;1.00;;;;;;;24.59;41.95;101379.13;5014745;28;20120;-73
2022/08/26 10:39:54;;;;;;;1.50;0.90;;;;;;;24.57;41.91;101379.38;4998548;28;20366;-73
2022/08/26 10:42:34;;;;;;;3.92;1.00;;;;;;;24.66;41.92;101380.53;5015782;28;20049;-72
2022/08/26 10:45:24;;;;;;;4.03;1.40;;;;;;;24.79;41.66;101373.84;4999489;28;20436;-70
2022/08/26 10:47:51;;;;;;;3.65;1.70;;;;;;;24.79;41.39;101362.09;4986429;28;20042;-70
2022/08/26 10:50:17;;;;;;;2.90;1.70;;;;;;;24.81;41.45;101365.41;5014399;28;20076;-72
2022/08/26 10:53:02;;;;;;;2.72;1.50;;;;;;;24.83;41.71;101366.78;4998759;28;20065;-72
2022/08/26 10:55:44;;;;;;;2.10;1.75;;;;;;;24.84;41.47;101349.28;5006484;28;20428;-72
2022/08/26 10:58:57;;;;;;;4.53;1.75;;;;;;;24.86;41.80;101351.78;5003853;28;20029;-73
2022/08/26 11:02:16;;;;;;;2.60;1.60;;;;;;;24.89;41.35;101349.34;4976264;28;20039;-72
2022/08/26 11:04:56;;;;;;;4.13;1.38;;;;;;;24.91;41.26;101333.50;4936618;28;20058;-72
2022/08/26 11:07:29;;;;;;;2.28;1.27;;;;;;;24.83;41.42;101335.88;4937070;28;20040;-72
2022/08/26 11:09:55;;;;;;;1.60;1.23;;;;;;;24.83;41.51;101333.97;4994368;28;20026;-72
2022/08/26 11:12:35;;;;;;;2.22;1.30;;;;;;;24.75;41.56;101334.47;4978680;28;20030;-72
2022/08/26 11:15:09;;;;;;;1.95;1.20;;;;;;;24.80;41.54;101330.94;4995327;28;20445;-72
2022/08/26 11:17:43;;;;;;;1.58;1.08;;;;;;;24.84;41.69;101327.41;4979633;28;20043;-71
2022/08/26 11:20:33;;;;;;;1.33;1.10;;;;;;;24.84;41.56;101318.41;4995961;28;20049;-71
2022/08/26 11:23:22;;;;;;;2.78;1.23;;;;;;;24.88;41.83;101322.25;4958594;29;20039;-71
2022/08/26 11:25:57;;;;;;;1.10;1.00;;;;;;;24.91;41.45;101322.56;4958071;29;20039;-72
2022/08/26 11:28:34;;;;;;;1.50;0.98;;;;;;;24.91;41.13;101322.56;4956450;29;20043;-72
2022/08/26 11:31:00;;;;;;;1.15;1.05;;;;;;;24.85;41.62;101320.88;4957693;29;20059;-72
2022/08/26 11:33:58;;;;;;;1.17;1.00;;;;;;;24.91;41.33;101321.75;4958351;29;20095;-72
2022/08/26 11:36:37;;;;;;;1.55;0.80;;;;;;;24.91;41.18;101321.75;4945427;28;20035;-72
2022/08/26 11:39:30;;;;;;;2.25;0.70;;;;;;;24.82;41.44;101323.28;5017541;28;20076;-73
2022/08/26 11:42:13;;;;;;;2.60;0.80;;;;;;;24.82;41.59;101312.34;5011108;28;20500;-72